sensor_id;sensor_type;location;lat;lon;timestamp;pressure;altitude;pressure_sealevel;temperature;humidity
74573;BME280;63071;51.526;-0.134;2022-11-10T00:00:34;101138.66;;;24.32;35.22
74573;BME280;63071;51.526;-0.134;2022-11-10T00:03:02;101135.94;;;24.28;35.24
74573;BME280;63071;51.526;-0.134;2022-11-10T00:05:28;101139.75;;;24.31;35.43
74573;BME280;63071;51.526;-0.134;2022-11-10T00:07:54;101127.88;;;24.25;35.39
74573;BME280;63071;51.526;-0.134;2022-11-10T00:10:20;101143.22;;;24.31;35.54
74573;BME280;63071;51.526;-0.134;2022-11-10T00:12:45;101145.47;;;24.26;35.14
74573;BME280;63071;51.526;-0.134;2022-11-10T00:15:11;101151.97;;;24.28;35.54
74573;BME280;63071;51.526;-0.134;2022-11-10T00:17:55;101152.31;;;24.27;35.40
74573;BME280;63071;51.526;-0.134;2022-11-10T00:20:20;101148.88;;;24.26;35.53
74573;BME280;63071;51.526;-0.134;2022-11-10T00:22:45;101155.78;;;24.27;35.40
74573;BME280;63071;51.526;-0.134;2022-11-10T00:25:11;101150.03;;;24.25;35.31
74573;BME280;63071;51.526;-0.134;2022-11-10T00:27:37;101145.47;;;24.26;35.11
74573;BME280;63071;51.526;-0.134;2022-11-10T00:30:04;101149.59;;;24.19;35.74
74573;BME280;63071;51.526;-0.134;2022-11-10T00:32:30;101145.78;;;24.20;35.61
74573;BME280;63071;51.526;-0.134;2022-11-10T00:34:56;101149.59;;;24.19;35.57
74573;BME280;63071;51.526;-0.134;2022-11-10T00:37:21;101142.31;;;24.16;35.31
74573;BME280;63071;51.526;-0.134;2022-11-10T00:39:47;101148.50;;;24.24;35.58
74573;BME280;63071;51.526;-0.134;2022-11-10T00:42:12;101148.88;;;24.26;35.55
74573;BME280;63071;51.526;-0.134;2022-11-10T00:44:38;101148.44;;;24.17;35.49
74573;BME280;63071;51.526;-0.134;2022-11-10T00:47:03;101167.16;;;24.20;35.66
74573;BME280;63071;51.526;-0.134;2022-11-10T00:49:29;101172.50;;;24.20;35.69
74573;BME280;63071;51.526;-0.134;2022-11-10T00:51:54;101167.53;;;24.23;35.34
74573;BME280;63071;51.526;-0.134;2022-11-10T00:54:20;101174.03;;;24.22;35.62
74573;BME280;63071;51.526;-0.134;2022-11-10T00:56:45;101181.31;;;24.25;35.66
74573;BME280;63071;51.526;-0.134;2022-11-10T00:59:11;101183.97;;;24.25;35.44
74573;BME280;63071;51.526;-0.134;2022-11-10T01:01:36;101190.41;;;24.20;35.83
74573;BME280;63071;51.526;-0.134;2022-11-10T01:04:02;101182.06;;;24.22;35.44
74573;BME280;63071;51.526;-0.134;2022-11-10T01:06:27;101183.56;;;24.23;35.83
74573;BME280;63071;51.526;-0.134;2022-11-10T01:08:53;101191.97;;;24.21;35.41
74573;BME280;63071;51.526;-0.134;2022-11-10T01:11:22;101176.31;;;24.19;35.51
74573;BME280;63071;51.526;-0.134;2022-11-10T01:13:53;101188.91;;;24.23;35.59
74573;BME280;63071;51.526;-0.134;2022-11-10T01:16:21;101182.41;;;24.20;35.29
74573;BME280;63071;51.526;-0.134;2022-11-10T01:18:52;101183.56;;;24.19;35.66
74573;BME280;63071;51.526;-0.134;2022-11-10T01:21:19;101187.00;;;24.19;35.39
74573;BME280;63071;51.526;-0.134;2022-11-10T01:23:45;101187.00;;;24.19;35.49
74573;BME280;63071;51.526;-0.134;2022-11-10T01:26:11;101194.59;;;24.17;35.53
74573;BME280;63071;51.526;-0.134;2022-11-10T01:28:37;101181.25;;;24.17;35.55
74573;BME280;63071;51.526;-0.134;2022-11-10T01:31:06;101187.38;;;24.22;35.76
74573;BME280;63071;51.526;-0.134;2022-11-10T01:33:32;101190.78;;;24.18;35.53
74573;BME280;63071;51.526;-0.134;2022-11-10T01:35:58;101187.31;;;24.14;35.72
74573;BME280;63071;51.526;-0.134;2022-11-10T01:38:29;101176.19;;;24.09;35.95
74573;BME280;63071;51.526;-0.134;2022-11-10T01:40:56;101190.75;;;24.15;35.66
74573;BME280;63071;51.526;-0.134;2022-11-10T01:43:22;101202.59;;;24.17;35.78
74573;BME280;63071;51.526;-0.134;2022-11-10T01:45:53;101204.13;;;24.15;35.98
74573;BME280;63071;51.526;-0.134;2022-11-10T01:48:48;101212.13;;;24.15;35.85
74573;BME280;63071;51.526;-0.134;2022-11-10T01:51:25;101192.94;;;24.06;35.66
74573;BME280;63071;51.526;-0.134;2022-11-10T01:53:57;101211.34;;;24.14;35.76
74573;BME280;63071;51.526;-0.134;2022-11-10T01:56:27;101210.94;;;24.12;36.06
74573;BME280;63071;51.526;-0.134;2022-11-10T01:58:59;101210.94;;;24.12;35.97
74573;BME280;63071;51.526;-0.134;2022-11-10T02:01:26;101218.19;;;24.12;35.77
74573;BME280;63071;51.526;-0.134;2022-11-10T02:03:55;101220.16;;;24.15;35.86
74573;BME280;63071;51.526;-0.134;2022-11-10T02:06:26;101220.91;;;24.15;35.85
74573;BME280;63071;51.526;-0.134;2022-11-10T02:08:53;101227.75;;;24.16;35.90
74573;BME280;63071;51.526;-0.134;2022-11-10T02:11:20;101233.50;;;24.18;35.88
74573;BME280;63071;51.526;-0.134;2022-11-10T02:13:47;101220.16;;;24.15;35.98
74573;BME280;63071;51.526;-0.134;2022-11-10T02:16:13;101221.72;;;24.19;35.88
74573;BME280;63071;51.526;-0.134;2022-11-10T02:18:39;101223.22;;;24.17;35.85
74573;BME280;63071;51.526;-0.134;2022-11-10T02:21:08;101217.88;;;24.17;35.90
74573;BME280;63071;51.526;-0.134;2022-11-10T02:26:04;101212.50;;;24.13;35.76
74573;BME280;63071;51.526;-0.134;2022-11-10T02:28:36;101212.50;;;24.13;35.72
74573;BME280;63071;51.526;-0.134;2022-11-10T02:31:03;101222.03;;;24.14;36.01
74573;BME280;63071;51.526;-0.134;2022-11-10T02:33:29;101224.28;;;24.12;36.02
74573;BME280;63071;51.526;-0.134;2022-11-10T02:35:55;101219.75;;;24.13;36.02
74573;BME280;63071;51.526;-0.134;2022-11-10T02:38:20;101221.63;;;24.12;35.93
74573;BME280;63071;51.526;-0.134;2022-11-10T02:40:48;101218.94;;;24.12;35.79
74573;BME280;63071;51.526;-0.134;2022-11-10T02:43:16;101220.09;;;24.11;35.74
74573;BME280;63071;51.526;-0.134;2022-11-10T02:45:42;101225.47;;;24.15;36.02
74573;BME280;63071;51.526;-0.134;2022-11-10T02:48:12;101220.50;;;24.13;35.95
74573;BME280;63071;51.526;-0.134;2022-11-10T02:50:39;101218.19;;;24.12;35.93
74573;BME280;63071;51.526;-0.134;2022-11-10T02:53:05;101222.03;;;24.14;35.90
74573;BME280;63071;51.526;-0.134;2022-11-10T02:55:31;101230.44;;;24.16;35.96
74573;BME280;63071;51.526;-0.134;2022-11-10T02:57:56;101235.78;;;24.16;35.76
74573;BME280;63071;51.526;-0.134;2022-11-10T03:00:22;101237.69;;;24.16;35.83
74573;BME280;63071;51.526;-0.134;2022-11-10T03:02:54;101238.03;;;24.14;35.82
74573;BME280;63071;51.526;-0.134;2022-11-10T03:05:20;101246.44;;;24.13;35.99
74573;BME280;63071;51.526;-0.134;2022-11-10T03:08:00;101248.72;;;24.14;35.59
74573;BME280;63071;51.526;-0.134;2022-11-10T03:10:28;101253.66;;;24.12;36.22
74573;BME280;63071;51.526;-0.134;2022-11-10T03:12:59;101248.72;;;24.14;35.90
74573;BME280;63071;51.526;-0.134;2022-11-10T03:15:26;101253.31;;;24.14;35.96
74573;BME280;63071;51.526;-0.134;2022-11-10T03:17:52;101250.63;;;24.14;35.78
74573;BME280;63071;51.526;-0.134;2022-11-10T03:20:18;101259.78;;;24.13;36.30
74573;BME280;63071;51.526;-0.134;2022-11-10T03:22:43;101254.81;;;24.11;36.08
74573;BME280;63071;51.526;-0.134;2022-11-10T03:25:10;101258.25;;;24.12;36.01
74573;BME280;63071;51.526;-0.134;2022-11-10T03:27:36;101247.91;;;24.10;35.96
74573;BME280;63071;51.526;-0.134;2022-11-10T03:30:02;101255.63;;;24.15;36.03
74573;BME280;63071;51.526;-0.134;2022-11-10T03:32:28;101263.22;;;24.13;36.12
74573;BME280;63071;51.526;-0.134;2022-11-10T03:34:53;101255.63;;;24.15;35.98
74573;BME280;63071;51.526;-0.134;2022-11-10T03:37:18;101256.75;;;24.14;35.96
74573;BME280;63071;51.526;-0.134;2022-11-10T03:39:44;101264.34;;;24.12;36.06
74573;BME280;63071;51.526;-0.134;2022-11-10T03:42:09;101267.81;;;24.13;36.10
74573;BME280;63071;51.526;-0.134;2022-11-10T03:44:35;101270.09;;;24.14;35.91
74573;BME280;63071;51.526;-0.134;2022-11-10T03:47:02;101259.00;;;24.12;36.03
74573;BME280;63071;51.526;-0.134;2022-11-10T03:49:29;101265.50;;;24.11;36.04
74573;BME280;63071;51.526;-0.134;2022-11-10T03:51:55;101268.88;;;24.08;35.92
74573;BME280;63071;51.526;-0.134;2022-11-10T03:54:20;101273.88;;;24.10;36.28
74573;BME280;63071;51.526;-0.134;2022-11-10T03:56:45;101278.09;;;24.11;36.18
74573;BME280;63071;51.526;-0.134;2022-11-10T03:59:11;101269.69;;;24.12;36.19
74573;BME280;63071;51.526;-0.134;2022-11-10T04:01:36;101277.00;;;24.15;36.01
74573;BME280;63071;51.526;-0.134;2022-11-10T04:04:02;101269.69;;;24.12;35.87
74573;BME280;63071;51.526;-0.134;2022-11-10T04:06:27;101276.59;;;24.13;36.14
74573;BME280;63071;51.526;-0.134;2022-11-10T04:09:11;101279.97;;;24.10;36.12
74573;BME280;63071;51.526;-0.134;2022-11-10T04:11:36;101289.13;;;24.09;36.37
74573;BME280;63071;51.526;-0.134;2022-11-10T04:14:20;101292.97;;;24.12;36.26
74573;BME280;63071;51.526;-0.134;2022-11-10T04:17:04;101296.41;;;24.12;36.01
74573;BME280;63071;51.526;-0.134;2022-11-10T04:19:31;101311.66;;;24.12;36.29
74573;BME280;63071;51.526;-0.134;2022-11-10T04:21:56;101305.97;;;24.13;36.38
74573;BME280;63071;51.526;-0.134;2022-11-10T04:24:22;101306.66;;;24.10;36.22
74573;BME280;63071;51.526;-0.134;2022-11-10T04:26:48;101303.53;;;24.05;36.45
74573;BME280;63071;51.526;-0.134;2022-11-10T04:29:16;101303.25;;;24.10;36.35
74573;BME280;63071;51.526;-0.134;2022-11-10T04:31:42;101310.47;;;24.09;36.24
74573;BME280;63071;51.526;-0.134;2022-11-10T04:34:11;101315.47;;;24.11;36.20
74573;BME280;63071;51.526;-0.134;2022-11-10T04:36:38;101316.53;;;24.06;36.29
74573;BME280;63071;51.526;-0.134;2022-11-10T04:39:05;101316.53;;;24.06;36.40
74573;BME280;63071;51.526;-0.134;2022-11-10T04:41:31;101337.53;;;24.08;36.46
74573;BME280;63071;51.526;-0.134;2022-11-10T04:43:58;101342.88;;;24.08;36.20
74573;BME280;63071;51.526;-0.134;2022-11-10T04:46:31;101337.50;;;24.04;36.40
74573;BME280;63071;51.526;-0.134;2022-11-10T04:48:57;101341.31;;;24.03;36.56
74573;BME280;63071;51.526;-0.134;2022-11-10T04:51:31;101332.16;;;24.04;36.41
74573;BME280;63071;51.526;-0.134;2022-11-10T04:53:57;101329.88;;;24.06;36.36
74573;BME280;63071;51.526;-0.134;2022-11-10T04:56:23;101325.28;;;24.03;36.33
74573;BME280;63071;51.526;-0.134;2022-11-10T04:58:50;101338.63;;;24.03;36.41
74573;BME280;63071;51.526;-0.134;2022-11-10T05:01:18;101336.72;;;24.04;36.49
74573;BME280;63071;51.526;-0.134;2022-11-10T05:03:45;101340.97;;;24.08;36.68
74573;BME280;63071;51.526;-0.134;2022-11-10T05:06:11;101340.91;;;24.01;36.72
74573;BME280;63071;51.526;-0.134;2022-11-10T05:08:38;101334.47;;;24.06;36.39
74573;BME280;63071;51.526;-0.134;2022-11-10T05:11:05;101323.44;;;24.07;36.28
74573;BME280;63071;51.526;-0.134;2022-11-10T05:13:30;101333.72;;;24.05;36.58
74573;BME280;63071;51.526;-0.134;2022-11-10T05:15:56;101332.50;;;24.03;36.73
74573;BME280;63071;51.526;-0.134;2022-11-10T05:18:22;101322.63;;;24.07;36.50
74573;BME280;63071;51.526;-0.134;2022-11-10T05:20:48;101335.63;;;24.08;36.51
74573;BME280;63071;51.526;-0.134;2022-11-10T05:23:14;101336.38;;;24.05;36.48
74573;BME280;63071;51.526;-0.134;2022-11-10T05:25:58;101351.25;;;24.06;36.68
74573;BME280;63071;51.526;-0.134;2022-11-10T05:28:24;101348.94;;;24.05;36.53
74573;BME280;63071;51.526;-0.134;2022-11-10T05:30:49;101353.50;;;24.04;36.47
74573;BME280;63071;51.526;-0.134;2022-11-10T05:33:15;101366.16;;;24.07;36.55
74573;BME280;63071;51.526;-0.134;2022-11-10T05:35:40;101361.53;;;24.04;36.39
74573;BME280;63071;51.526;-0.134;2022-11-10T05:38:06;101346.25;;;24.01;36.42
74573;BME280;63071;51.526;-0.134;2022-11-10T05:40:32;101346.25;;;24.01;36.65
74573;BME280;63071;51.526;-0.134;2022-11-10T05:42:58;101360.81;;;24.07;36.29
74573;BME280;63071;51.526;-0.134;2022-11-10T05:45:26;101372.97;;;24.05;36.91
74573;BME280;63071;51.526;-0.134;2022-11-10T05:47:52;101377.53;;;24.04;36.79
74573;BME280;63071;51.526;-0.134;2022-11-10T05:50:19;101379.16;;;24.09;36.47
74573;BME280;63071;51.526;-0.134;2022-11-10T05:52:48;101387.13;;;24.05;36.64
74573;BME280;63071;51.526;-0.134;2022-11-10T05:55:16;101384.78;;;24.04;36.92
74573;BME280;63071;51.526;-0.134;2022-11-10T05:57:43;101379.09;;;24.05;36.63
74573;BME280;63071;51.526;-0.134;2022-11-10T06:00:10;101376.78;;;24.04;37.11
74573;BME280;63071;51.526;-0.134;2022-11-10T06:02:36;101386.31;;;24.05;36.66
74573;BME280;63071;51.526;-0.134;2022-11-10T06:05:02;101387.53;;;24.07;36.60
74573;BME280;63071;51.526;-0.134;2022-11-10T06:07:28;101384.44;;;24.05;36.81
74573;BME280;63071;51.526;-0.134;2022-11-10T06:09:53;101385.56;;;24.04;36.49
74573;BME280;63071;51.526;-0.134;2022-11-10T06:12:19;101380.53;;;23.99;36.98
74573;BME280;63071;51.526;-0.134;2022-11-10T06:14:44;101380.22;;;24.04;36.94
74573;BME280;63071;51.526;-0.134;2022-11-10T06:17:10;101378.31;;;24.05;36.75
74573;BME280;63071;51.526;-0.134;2022-11-10T06:19:35;101378.72;;;24.07;36.71
74573;BME280;63071;51.526;-0.134;2022-11-10T06:22:00;101383.25;;;24.03;36.75
74573;BME280;63071;51.526;-0.134;2022-11-10T06:24:26;101382.19;;;24.07;37.05
74573;BME280;63071;51.526;-0.134;2022-11-10T06:26:51;101386.72;;;24.07;36.71
74573;BME280;63071;51.526;-0.134;2022-11-10T06:29:17;101376.06;;;24.07;36.80
74573;BME280;63071;51.526;-0.134;2022-11-10T06:31:42;101372.22;;;24.04;36.88
74573;BME280;63071;51.526;-0.134;2022-11-10T06:34:08;101376.06;;;24.07;37.01
74573;BME280;63071;51.526;-0.134;2022-11-10T06:36:33;101374.56;;;24.09;36.70
74573;BME280;63071;51.526;-0.134;2022-11-10T06:38:58;101364.53;;;24.03;36.66
74573;BME280;63071;51.526;-0.134;2022-11-10T06:41:24;101371.56;;;24.11;36.92
74573;BME280;63071;51.526;-0.134;2022-11-10T06:43:49;101366.97;;;24.11;36.95
74573;BME280;63071;51.526;-0.134;2022-11-10T06:46:15;101371.91;;;24.09;37.04
74573;BME280;63071;51.526;-0.134;2022-11-10T06:48:40;101377.19;;;24.06;36.98
74573;BME280;63071;51.526;-0.134;2022-11-10T06:51:06;101383.34;;;24.10;37.03
74573;BME280;63071;51.526;-0.134;2022-11-10T06:53:31;101384.16;;;24.14;36.78
74573;BME280;63071;51.526;-0.134;2022-11-10T06:55:57;101375.34;;;24.10;36.84
74573;BME280;63071;51.526;-0.134;2022-11-10T06:58:22;101385.31;;;24.13;37.58
74573;BME280;63071;51.526;-0.134;2022-11-10T07:00:48;101399.09;;;24.15;36.80
74573;BME280;63071;51.526;-0.134;2022-11-10T07:03:14;101393.69;;;24.11;37.07
74573;BME280;63071;51.526;-0.134;2022-11-10T07:05:40;101410.47;;;24.12;36.86
74573;BME280;63071;51.526;-0.134;2022-11-10T07:08:12;101415.09;;;24.15;37.06
74573;BME280;63071;51.526;-0.134;2022-11-10T07:10:44;101418.19;;;24.17;36.87
74573;BME280;63071;51.526;-0.134;2022-11-10T07:13:14;101426.56;;;24.15;36.68
74573;BME280;63071;51.526;-0.134;2022-11-10T07:15:40;101430.00;;;24.16;37.07
74573;BME280;63071;51.526;-0.134;2022-11-10T07:18:06;101427.25;;;24.12;36.79
74573;BME280;63071;51.526;-0.134;2022-11-10T07:20:32;101437.94;;;24.12;37.07
74573;BME280;63071;51.526;-0.134;2022-11-10T07:23:03;101435.69;;;24.14;37.01
74573;BME280;63071;51.526;-0.134;2022-11-10T07:25:31;101440.72;;;24.19;36.86
74573;BME280;63071;51.526;-0.134;2022-11-10T07:27:59;101447.91;;;24.15;37.23
74573;BME280;63071;51.526;-0.134;2022-11-10T07:30:26;101437.59;;;24.14;37.22
74573;BME280;63071;51.526;-0.134;2022-11-10T07:33:03;101425.72;;;24.11;37.26
74573;BME280;63071;51.526;-0.134;2022-11-10T07:35:29;101430.00;;;24.16;36.81
74573;BME280;63071;51.526;-0.134;2022-11-10T07:37:57;101431.47;;;24.13;37.42
74573;BME280;63071;51.526;-0.134;2022-11-10T07:40:22;101432.56;;;24.09;37.02
74573;BME280;63071;51.526;-0.134;2022-11-10T07:42:48;101431.06;;;24.11;37.43
74573;BME280;63071;51.526;-0.134;2022-11-10T07:45:14;101442.94;;;24.14;36.98
74573;BME280;63071;51.526;-0.134;2022-11-10T07:47:40;101442.56;;;24.15;37.26
74573;BME280;63071;51.526;-0.134;2022-11-10T07:50:05;101440.38;;;24.21;37.20
74573;BME280;63071;51.526;-0.134;2022-11-10T07:52:31;101438.06;;;24.19;37.17
74573;BME280;63071;51.526;-0.134;2022-11-10T07:54:56;101437.22;;;24.15;37.00
74573;BME280;63071;51.526;-0.134;2022-11-10T07:57:22;101445.59;;;24.14;37.25
74573;BME280;63071;51.526;-0.134;2022-11-10T07:59:48;101450.19;;;24.13;37.13
74573;BME280;63071;51.526;-0.134;2022-11-10T08:02:13;101440.25;;;24.14;37.20
74573;BME280;63071;51.526;-0.134;2022-11-10T08:04:39;101438.00;;;24.16;37.26
74573;BME280;63071;51.526;-0.134;2022-11-10T08:07:04;101441.84;;;24.18;37.23
74573;BME280;63071;51.526;-0.134;2022-11-10T08:09:30;101448.69;;;24.16;37.00
74573;BME280;63071;51.526;-0.134;2022-11-10T08:11:55;101463.19;;;24.15;37.26
74573;BME280;63071;51.526;-0.134;2022-11-10T08:14:20;101456.63;;;24.12;37.46
74573;BME280;63071;51.526;-0.134;2022-11-10T08:16:46;101461.28;;;24.15;37.03
74573;BME280;63071;51.526;-0.134;2022-11-10T08:19:12;101461.75;;;24.21;37.19
74573;BME280;63071;51.526;-0.134;2022-11-10T08:21:37;101457.97;;;24.26;36.76
74573;BME280;63071;51.526;-0.134;2022-11-10T08:24:03;101464.41;;;24.21;36.86
74573;BME280;63071;51.526;-0.134;2022-11-10T08:26:28;101483.81;;;24.18;37.25
74573;BME280;63071;51.526;-0.134;2022-11-10T08:28:54;101464.44;;;24.25;37.27
74573;BME280;63071;51.526;-0.134;2022-11-10T08:31:19;101470.09;;;24.19;37.51
74573;BME280;63071;51.526;-0.134;2022-11-10T08:33:45;101470.81;;;24.16;37.27
74573;BME280;63071;51.526;-0.134;2022-11-10T08:36:10;101477.72;;;24.17;37.46
74573;BME280;63071;51.526;-0.134;2022-11-10T08:38:36;101473.13;;;24.18;37.32
74573;BME280;63071;51.526;-0.134;2022-11-10T08:41:02;101482.28;;;24.17;37.28
74573;BME280;63071;51.526;-0.134;2022-11-10T08:43:27;101477.25;;;24.12;37.36
74573;BME280;63071;51.526;-0.134;2022-11-10T08:45:54;101470.41;;;24.14;37.51
74573;BME280;63071;51.526;-0.134;2022-11-10T08:48:21;101478.81;;;24.16;37.57
74573;BME280;63071;51.526;-0.134;2022-11-10T08:50:48;101481.06;;;24.11;37.41
74573;BME280;63071;51.526;-0.134;2022-11-10T08:53:20;101496.69;;;24.12;37.63
74573;BME280;63071;51.526;-0.134;2022-11-10T08:55:46;101489.50;;;24.16;37.23
74573;BME280;63071;51.526;-0.134;2022-11-10T08:58:18;101497.22;;;24.22;37.43
74573;BME280;63071;51.526;-0.134;2022-11-10T09:00:44;101501.34;;;24.15;37.11
74573;BME280;63071;51.526;-0.134;2022-11-10T09:03:15;101496.00;;;24.15;37.34
74573;BME280;63071;51.526;-0.134;2022-11-10T09:05:44;101507.78;;;24.14;37.74
74573;BME280;63071;51.526;-0.134;2022-11-10T09:08:10;101514.69;;;24.15;37.62
74573;BME280;63071;51.526;-0.134;2022-11-10T09:10:38;101517.84;;;24.21;37.17
74573;BME280;63071;51.526;-0.134;2022-11-10T09:13:05;101515.88;;;24.18;37.38
74573;BME280;63071;51.526;-0.134;2022-11-10T09:15:33;101536.47;;;24.17;37.25
74573;BME280;63071;51.526;-0.134;2022-11-10T09:18:00;101530.66;;;24.12;37.42
74573;BME280;63071;51.526;-0.134;2022-11-10T09:20:27;101547.91;;;24.18;37.23
74573;BME280;63071;51.526;-0.134;2022-11-10T09:22:53;101543.34;;;24.18;37.42
74573;BME280;63071;51.526;-0.134;2022-11-10T09:25:19;101535.66;;;24.13;37.18
74573;BME280;63071;51.526;-0.134;2022-11-10T09:27:45;101556.41;;;24.24;37.04
74573;BME280;63071;51.526;-0.134;2022-11-10T09:30:11;101546.44;;;24.20;37.49
74573;BME280;63071;51.526;-0.134;2022-11-10T09:32:36;101546.81;;;24.19;37.17
74573;BME280;63071;51.526;-0.134;2022-11-10T09:35:03;101562.03;;;24.18;37.15
74573;BME280;63071;51.526;-0.134;2022-11-10T09:37:29;101568.94;;;24.19;37.43
74573;BME280;63071;51.526;-0.134;2022-11-10T09:39:54;101566.63;;;24.18;37.24
74573;BME280;63071;51.526;-0.134;2022-11-10T09:42:34;101565.44;;;24.15;37.26
74573;BME280;63071;51.526;-0.134;2022-11-10T09:50:29;101571.47;;;24.12;37.02
74573;BME280;63071;51.526;-0.134;2022-11-10T09:52:56;101575.41;;;24.18;37.22
74573;BME280;63071;51.526;-0.134;2022-11-10T09:57:55;101596.34;;;24.16;37.45
74573;BME280;63071;51.526;-0.134;2022-11-10T10:00:22;101593.69;;;24.16;37.50
74573;BME280;63071;51.526;-0.134;2022-11-10T10:02:54;101597.50;;;24.15;37.54
74573;BME280;63071;51.526;-0.134;2022-11-10T10:08:08;101597.50;;;24.15;37.42
74573;BME280;63071;51.526;-0.134;2022-11-10T10:10:44;101602.09;;;24.18;37.38
74573;BME280;63071;51.526;-0.134;2022-11-10T10:13:59;101603.59;;;24.16;37.34
74573;BME280;63071;51.526;-0.134;2022-11-10T10:16:39;101606.63;;;24.14;37.49
74573;BME280;63071;51.526;-0.134;2022-11-10T10:19:33;101615.13;;;24.20;37.29
74573;BME280;63071;51.526;-0.134;2022-11-10T10:24:43;101608.34;;;24.26;37.17
74573;BME280;63071;51.526;-0.134;2022-11-10T10:27:14;101624.03;;;24.28;37.39
74573;BME280;63071;51.526;-0.134;2022-11-10T10:29:47;101619.69;;;24.19;37.35
74573;BME280;63071;51.526;-0.134;2022-11-10T10:32:15;101627.34;;;24.21;37.24
74573;BME280;63071;51.526;-0.134;2022-11-10T10:34:43;101621.59;;;24.19;37.10
74573;BME280;63071;51.526;-0.134;2022-11-10T10:37:34;101629.66;;;24.23;37.26
74573;BME280;63071;51.526;-0.134;2022-11-10T10:40:04;101634.22;;;24.22;37.37
74573;BME280;63071;51.526;-0.134;2022-11-10T10:42:33;101638.38;;;24.19;37.45
74573;BME280;63071;51.526;-0.134;2022-11-10T10:47:50;101624.19;;;24.15;37.17
74573;BME280;63071;51.526;-0.134;2022-11-10T10:50:24;101636.47;;;24.20;37.26
74573;BME280;63071;51.526;-0.134;2022-11-10T10:55:35;101638.81;;;24.22;37.25
74573;BME280;63071;51.526;-0.134;2022-11-10T10:58:04;101637.66;;;24.23;37.19
74573;BME280;63071;51.526;-0.134;2022-11-10T11:00:30;101633.47;;;24.22;37.29
74573;BME280;63071;51.526;-0.134;2022-11-10T11:08:42;101640.22;;;24.15;37.41
74573;BME280;63071;51.526;-0.134;2022-11-10T11:11:17;101627.69;;;24.19;37.30
74573;BME280;63071;51.526;-0.134;2022-11-10T11:13:42;101630.38;;;24.19;37.72
74573;BME280;63071;51.526;-0.134;2022-11-10T11:16:09;101629.19;;;24.17;37.52
74573;BME280;63071;51.526;-0.134;2022-11-10T11:18:39;101624.28;;;24.19;37.55
74573;BME280;63071;51.526;-0.134;2022-11-10T11:26:59;101623.59;;;24.26;37.42
74573;BME280;63071;51.526;-0.134;2022-11-10T11:29:40;101618.69;;;24.28;37.45
74573;BME280;63071;51.526;-0.134;2022-11-10T11:32:54;101625.09;;;24.23;37.35
74573;BME280;63071;51.526;-0.134;2022-11-10T11:41:42;101623.13;;;24.20;37.44
74573;BME280;63071;51.526;-0.134;2022-11-10T11:55:25;101608.28;;;24.23;37.22
74573;BME280;63071;51.526;-0.134;2022-11-10T11:58:28;101622.84;;;24.25;37.11
74573;BME280;63071;51.526;-0.134;2022-11-10T12:01:06;101630.78;;;24.22;37.27
74573;BME280;63071;51.526;-0.134;2022-11-10T12:12:01;101618.53;;;24.20;37.35
74573;BME280;63071;51.526;-0.134;2022-11-10T12:14:48;101612.84;;;24.22;37.02
74573;BME280;63071;51.526;-0.134;2022-11-10T12:17:41;101612.09;;;24.22;37.22
74573;BME280;63071;51.526;-0.134;2022-11-10T12:23:08;101612.09;;;24.22;37.11
74573;BME280;63071;51.526;-0.134;2022-11-10T12:28:30;101624.69;;;24.21;37.03
74573;BME280;63071;51.526;-0.134;2022-11-10T12:31:02;101630.78;;;24.22;37.08
74573;BME280;63071;51.526;-0.134;2022-11-10T12:35:57;101622.84;;;24.25;36.90
74573;BME280;63071;51.526;-0.134;2022-11-10T12:38:41;101629.84;;;24.33;37.06
74573;BME280;63071;51.526;-0.134;2022-11-10T12:41:13;101635.81;;;24.27;36.92
74573;BME280;63071;51.526;-0.134;2022-11-10T12:46:12;101635.88;;;24.30;38.28
74573;BME280;63071;51.526;-0.134;2022-11-10T12:49:16;101635.06;;;24.26;37.87
74573;BME280;63071;51.526;-0.134;2022-11-10T12:52:09;101623.78;;;24.36;37.51
74573;BME280;63071;51.526;-0.134;2022-11-10T12:54:39;101641.41;;;24.41;37.49
74573;BME280;63071;51.526;-0.134;2022-11-10T12:57:13;101626.16;;;24.42;37.31
74573;BME280;63071;51.526;-0.134;2022-11-10T12:59:50;101632.28;;;24.42;37.62
74573;BME280;63071;51.526;-0.134;2022-11-10T13:02:25;101637.56;;;24.38;37.62
74573;BME280;63071;51.526;-0.134;2022-11-10T13:05:33;101635.22;;;24.37;37.20
74573;BME280;63071;51.526;-0.134;2022-11-10T13:08:18;101636.78;;;24.38;36.87
74573;BME280;63071;51.526;-0.134;2022-11-10T13:11:01;101631.03;;;24.36;37.33
74573;BME280;63071;51.526;-0.134;2022-11-10T13:13:29;101632.53;;;24.33;36.98
74573;BME280;63071;51.526;-0.134;2022-11-10T13:16:08;101639.47;;;24.38;36.96
74573;BME280;63071;51.526;-0.134;2022-11-10T13:20:59;101653.31;;;24.44;36.95
74573;BME280;63071;51.526;-0.134;2022-11-10T13:23:31;101655.91;;;24.40;36.87
74573;BME280;63071;51.526;-0.134;2022-11-10T13:26:10;101634.53;;;24.40;36.71
74573;BME280;63071;51.526;-0.134;2022-11-10T13:34:10;101650.84;;;24.35;37.05
74573;BME280;63071;51.526;-0.134;2022-11-10T13:36:47;101660.91;;;24.42;36.93
74573;BME280;63071;51.526;-0.134;2022-11-10T13:41:50;101664.22;;;24.35;37.21
74573;BME280;63071;51.526;-0.134;2022-11-10T13:44:32;101665.00;;;24.35;37.75
74573;BME280;63071;51.526;-0.134;2022-11-10T13:52:32;101671.63;;;24.45;37.25
74573;BME280;63071;51.526;-0.134;2022-11-10T13:55:33;101681.22;;;24.46;37.36
74573;BME280;63071;51.526;-0.134;2022-11-10T13:58:08;101680.16;;;24.51;37.19
74573;BME280;63071;51.526;-0.134;2022-11-10T14:00:35;101678.94;;;24.48;37.33
74573;BME280;63071;51.526;-0.134;2022-11-10T14:03:06;101682.38;;;24.49;37.19
74573;BME280;63071;51.526;-0.134;2022-11-10T14:08:17;101678.53;;;24.46;37.48
74573;BME280;63071;51.526;-0.134;2022-11-10T14:10:59;101694.84;;;24.41;37.23
74573;BME280;63071;51.526;-0.134;2022-11-10T14:13:51;101697.53;;;24.41;37.02
74573;BME280;63071;51.526;-0.134;2022-11-10T14:16:22;101698.66;;;24.40;37.56
74573;BME280;63071;51.526;-0.134;2022-11-10T14:18:54;101691.66;;;24.32;37.60